Time;durP1;ratioP1;P1;durP2;ratioP2;P2;SDS_P1;SDS_P2;PMS_P1;PMS_P2;Temp;Humidity;BMP_temperature;BMP_pressure;BME280_temperature;BME280_humidity;BME280_pressure;Samples;Min_cycle;Max_cycle;Signal;HPM_P1;HPM_P2
2023/07/06 00:02:00;;;;;;;6.00;3.70;;;;;;;;;;82808;278;3011415;-34
2023/07/06 00:04:36;;;;;;;5.50;3.60;;;;;;;;;;82096;278;3031281;-34
2023/07/06 00:07:12;;;;;;;6.30;3.90;;;;;;;;;;82039;270;3032201;-34
2023/07/06 00:09:47;;;;;;;6.20;3.70;;;;;;;;;;82788;271;3011516;-34
2023/07/06 00:12:23;;;;;;;5.80;3.60;;;;;;;;;;83366;278;3011409;-34
2023/07/06 00:14:57;;;;;;;5.50;3.50;;;;;;;;;;82089;278;3027846;-34
2023/07/06 00:17:33;;;;;;;5.80;3.50;;;;;;;;;;82799;279;3011674;-34
2023/07/06 00:20:13;;;;;;;6.10;4.00;;;;;;;;;;82830;270;3013031;-34
2023/07/06 00:22:47;;;;;;;5.90;3.90;;;;;;;;;;82126;279;3031152;-34
2023/07/06 00:25:25;;;;;;;5.90;4.10;;;;;;;;;;82814;270;3013623;-34
2023/07/06 00:28:03;;;;;;;5.40;3.70;;;;;;;;;;82058;278;3032408;-34
2023/07/06 00:30:55;;;;;;;5.90;4.00;;;;;;;;;;82837;279;3011724;-34
2023/07/06 00:33:30;;;;;;;5.40;3.90;;;;;;;;;;82077;278;3028817;-34
2023/07/06 00:36:06;;;;;;;5.70;4.00;;;;;;;;;;82083;278;3028240;-34
2023/07/06 00:38:41;;;;;;;5.80;3.90;;;;;;;;;;82184;278;3036830;-34
2023/07/06 00:41:17;;;;;;;6.70;4.30;;;;;;;;;;82828;270;3011507;-34
2023/07/06 00:43:56;;;;;;;5.80;3.90;;;;;;;;;;82803;278;3013169;-34
2023/07/06 00:46:39;;;;;;;5.70;4.00;;;;;;;;;;82091;278;3032519;-34
2023/07/06 00:49:16;;;;;;;5.30;4.00;;;;;;;;;;82065;279;3035280;-34
2023/07/06 00:51:52;;;;;;;5.50;3.90;;;;;;;;;;82070;271;3027550;-34
2023/07/06 00:54:28;;;;;;;5.60;3.90;;;;;;;;;;82829;278;3013063;-32
2023/07/06 00:57:06;;;;;;;5.40;3.90;;;;;;;;;;82069;271;3031756;-34
2023/07/06 00:59:44;;;;;;;5.80;3.90;;;;;;;;;;82113;271;3032646;-34
2023/07/06 01:02:21;;;;;;;6.10;3.90;;;;;;;;;;82086;279;3028848;-34
2023/07/06 01:04:56;;;;;;;5.40;3.80;;;;;;;;;;82073;278;3027752;-34
2023/07/06 01:07:37;;;;;;;5.40;3.80;;;;;;;;;;82050;271;3030943;-34
2023/07/06 01:10:16;;;;;;;5.30;3.80;;;;;;;;;;82073;279;3031812;-34
2023/07/06 01:12:53;;;;;;;5.40;3.60;;;;;;;;;;82099;278;3027898;-34
2023/07/06 01:15:30;;;;;;;6.40;3.90;;;;;;;;;;82057;278;3027716;-34
2023/07/06 01:18:16;;;;;;;6.10;3.90;;;;;;;;;;82037;277;3029796;-34
2023/07/06 01:20:58;;;;;;;6.00;4.30;;;;;;;;;;82101;271;3032026;-34
2023/07/06 01:24:00;;;;;;;6.30;4.00;;;;;;;;;;82093;271;3027916;-34
2023/07/06 01:27:03;;;;;;;5.60;3.90;;;;;;;;;;82081;278;3027908;-34
2023/07/06 01:30:10;;;;;;;5.90;4.00;;;;;;;;;;82028;278;3030810;-34
2023/07/06 01:32:51;;;;;;;5.50;3.80;;;;;;;;;;82106;271;3031499;-34
2023/07/06 01:35:36;;;;;;;6.00;3.90;;;;;;;;;;82073;279;3029482;-34
2023/07/06 01:38:11;;;;;;;5.80;4.00;;;;;;;;;;82042;279;3027888;-34
2023/07/06 01:40:46;;;;;;;5.30;3.80;;;;;;;;;;82810;271;3012928;-33
2023/07/06 01:43:25;;;;;;;5.80;4.00;;;;;;;;;;82819;279;3011558;-34
2023/07/06 01:46:02;;;;;;;5.70;3.90;;;;;;;;;;82053;271;3030928;-34
2023/07/06 01:48:39;;;;;;;5.60;3.80;;;;;;;;;;82057;275;3032916;-34
2023/07/06 01:51:25;;;;;;;5.40;3.60;;;;;;;;;;82067;279;3028833;-34
2023/07/06 01:54:05;;;;;;;5.30;3.70;;;;;;;;;;82112;279;3027315;-34
2023/07/06 01:56:50;;;;;;;6.30;4.00;;;;;;;;;;82076;279;3031002;-33
2023/07/06 01:59:29;;;;;;;5.40;3.70;;;;;;;;;;82054;271;3032929;-34
2023/07/06 02:02:07;;;;;;;5.40;3.80;;;;;;;;;;81663;271;3028891;-33
2023/07/06 02:04:44;;;;;;;6.20;4.20;;;;;;;;;;82028;272;3027796;-33
2023/07/06 02:07:20;;;;;;;5.80;4.00;;;;;;;;;;82081;279;3030405;-34
2023/07/06 02:09:56;;;;;;;5.80;3.80;;;;;;;;;;82056;279;3031976;-34
2023/07/06 02:12:32;;;;;;;5.50;3.90;;;;;;;;;;82050;279;3028662;-34
2023/07/06 02:15:12;;;;;;;5.70;3.80;;;;;;;;;;82080;279;3027217;-33
2023/07/06 02:17:48;;;;;;;5.40;3.70;;;;;;;;;;82033;279;3030965;-34
2023/07/06 02:20:24;;;;;;;6.10;3.80;;;;;;;;;;82053;279;3032003;-34
2023/07/06 02:23:01;;;;;;;5.20;3.40;;;;;;;;;;82074;279;3028250;-34
2023/07/06 02:25:40;;;;;;;5.70;3.90;;;;;;;;;;82087;279;3027134;-33
2023/07/06 02:28:14;;;;;;;5.70;3.80;;;;;;;;;;82105;271;3031355;-33
2023/07/06 02:30:50;;;;;;;5.20;3.80;;;;;;;;;;82834;271;3011562;-33
2023/07/06 02:33:27;;;;;;;5.40;3.70;;;;;;;;;;82820;279;3011985;-33
2023/07/06 02:36:02;;;;;;;5.20;3.70;;;;;;;;;;82061;271;3031933;-33
2023/07/06 02:38:37;;;;;;;5.10;3.60;;;;;;;;;;82069;271;3028749;-33
2023/07/06 02:41:14;;;;;;;5.50;3.80;;;;;;;;;;82838;275;3011531;-33
2023/07/06 02:43:48;;;;;;;6.00;3.50;;;;;;;;;;82089;271;3027203;-33
2023/07/06 02:46:25;;;;;;;5.70;3.90;;;;;;;;;;82810;279;3011496;-33
2023/07/06 02:48:59;;;;;;;5.70;3.80;;;;;;;;;;82101;270;3030442;-34
2023/07/06 02:51:40;;;;;;;5.30;3.70;;;;;;;;;;82114;270;3037284;-34
2023/07/06 02:54:15;;;;;;;5.60;3.90;;;;;;;;;;82187;278;3029349;-34
2023/07/06 02:56:53;;;;;;;5.00;3.30;;;;;;;;;;82951;278;3011508;-34
2023/07/06 02:59:29;;;;;;;5.10;3.70;;;;;;;;;;82139;274;3027924;-34
2023/07/06 03:02:04;;;;;;;5.00;3.60;;;;;;;;;;82168;274;3038754;-33
2023/07/06 03:04:40;;;;;;;5.10;3.60;;;;;;;;;;82898;270;3011503;-33
2023/07/06 03:07:18;;;;;;;4.80;3.20;;;;;;;;;;82907;274;3011568;-34
2023/07/06 03:09:53;;;;;;;4.90;3.30;;;;;;;;;;82125;278;3032271;-34
2023/07/06 03:12:29;;;;;;;5.20;3.20;;;;;;;;;;82868;274;3011503;-34
2023/07/06 03:15:10;;;;;;;5.20;3.50;;;;;;;;;;82181;274;3028427;-34
2023/07/06 03:17:48;;;;;;;5.30;3.40;;;;;;;;;;82175;270;3027912;-34
2023/07/06 03:20:24;;;;;;;5.70;3.70;;;;;;;;;;82139;274;3030711;-34
2023/07/06 03:22:59;;;;;;;5.30;3.40;;;;;;;;;;82892;270;3012840;-34
2023/07/06 03:25:35;;;;;;;5.70;3.50;;;;;;;;;;82906;278;3011689;-34
2023/07/06 03:28:15;;;;;;;5.10;3.30;;;;;;;;;;82868;273;3012037;-34
2023/07/06 03:30:55;;;;;;;5.20;3.50;;;;;;;;;;82101;278;3032027;-33
2023/07/06 03:33:32;;;;;;;5.10;3.40;;;;;;;;;;82126;274;3028388;-33
2023/07/06 03:36:08;;;;;;;5.80;3.40;;;;;;;;;;82121;277;3028462;-34
2023/07/06 03:38:43;;;;;;;5.10;3.50;;;;;;;;;;82867;266;3011772;-33
2023/07/06 03:41:19;;;;;;;5.50;3.70;;;;;;;;;;82826;270;3011328;-33
2023/07/06 03:43:56;;;;;;;5.20;3.40;;;;;;;;;;82843;270;3011614;-33
2023/07/06 03:46:33;;;;;;;5.40;3.40;;;;;;;;;;82114;278;3030487;-33
2023/07/06 03:49:12;;;;;;;5.30;3.60;;;;;;;;;;82085;270;3032084;-33
2023/07/06 03:51:48;;;;;;;5.00;3.50;;;;;;;;;;82095;278;3028339;-33
2023/07/06 03:54:23;;;;;;;5.60;3.60;;;;;;;;;;82153;278;3027624;-34
2023/07/06 03:56:59;;;;;;;6.20;4.00;;;;;;;;;;82881;274;3011702;-34
2023/07/06 03:59:36;;;;;;;5.40;3.60;;;;;;;;;;82037;271;3030939;-34
2023/07/06 04:02:12;;;;;;;5.30;3.70;;;;;;;;;;82849;274;3011623;-34
2023/07/06 04:04:48;;;;;;;5.50;3.80;;;;;;;;;;82856;274;3013147;-34
2023/07/06 04:07:23;;;;;;;5.60;3.60;;;;;;;;;;82843;270;3012956;-33
2023/07/06 04:10:00;;;;;;;5.90;3.70;;;;;;;;;;82867;270;3011536;-33
2023/07/06 04:12:37;;;;;;;5.60;3.60;;;;;;;;;;82090;270;3031270;-33
2023/07/06 04:15:14;;;;;;;5.50;3.70;;;;;;;;;;82080;270;3029325;-33
2023/07/06 04:17:52;;;;;;;5.40;3.60;;;;;;;;;;82113;278;3027326;-34
2023/07/06 04:20:29;;;;;;;4.90;3.40;;;;;;;;;;82085;278;3030358;-34
2023/07/06 04:23:09;;;;;;;5.80;3.40;;;;;;;;;;82081;274;3031508;-34
2023/07/06 04:25:44;;;;;;;5.10;3.50;;;;;;;;;;82114;270;3028794;-34
2023/07/06 04:28:19;;;;;;;5.90;3.40;;;;;;;;;;82843;270;3011565;-34
2023/07/06 04:30:55;;;;;;;5.10;3.40;;;;;;;;;;82855;270;3011877;-34
2023/07/06 04:33:28;;;;;;;6.10;3.80;;;;;;;;;;83366;274;3011637;-34
2023/07/06 04:36:07;;;;;;;5.50;3.70;;;;;;;;;;82116;278;3031294;-34
2023/07/06 04:38:42;;;;;;;6.00;3.60;;;;;;;;;;82112;278;3031626;-34
2023/07/06 04:41:17;;;;;;;5.20;3.60;;;;;;;;;;82832;278;3011747;-34
2023/07/06 04:43:53;;;;;;;5.60;3.50;;;;;;;;;;82838;270;3013526;-34
2023/07/06 04:46:28;;;;;;;5.30;3.60;;;;;;;;;;82854;277;3013188;-34
2023/07/06 04:49:04;;;;;;;5.40;3.60;;;;;;;;;;82870;274;3012846;-34
2023/07/06 04:51:40;;;;;;;5.20;3.60;;;;;;;;;;82888;270;3012977;-34
2023/07/06 04:54:14;;;;;;;5.20;3.80;;;;;;;;;;82110;270;3034357;-34
2023/07/06 04:56:48;;;;;;;6.10;3.60;;;;;;;;;;83437;270;3011914;-34
2023/07/06 04:59:25;;;;;;;5.60;3.60;;;;;;;;;;82134;270;3030978;-34
2023/07/06 05:02:00;;;;;;;5.40;3.60;;;;;;;;;;82145;274;3031275;-34
2023/07/06 05:04:40;;;;;;;5.80;3.70;;;;;;;;;;82840;273;3011500;-34
2023/07/06 05:07:14;;;;;;;5.40;3.70;;;;;;;;;;82139;274;3027991;-34
2023/07/06 05:09:54;;;;;;;5.70;3.90;;;;;;;;;;82887;269;3011549;-34
2023/07/06 05:12:28;;;;;;;;;;;;;;;;;;82152;274;3027813;-34
2023/07/06 05:15:01;;;;;;;;;;;;;;;;;;83443;270;3011554;-34
2023/07/06 05:17:35;;;;;;;;;;;;;;;;;;82179;278;3032516;-34
2023/07/06 05:20:10;;;;;;;;;;;;;;;;;;83495;274;3011920;-34
2023/07/06 05:22:43;;;;;;;;;;;;;;;;;;82188;270;3027927;-34
2023/07/06 05:25:15;;;;;;;;;;;;;;;;;;83475;270;3012736;-34
2023/07/06 05:27:48;;;;;;;;;;;;;;;;;;82175;278;3031530;-34
2023/07/06 05:30:21;;;;;;;;;;;;;;;;;;83432;278;3012741;-34
2023/07/06 05:32:54;;;;;;;;;;;;;;;;;;82136;277;3026320;-34
2023/07/06 05:35:29;;;;;;;;;;;;;;;;;;83404;277;3011945;-34
2023/07/06 05:38:02;;;;;;;;;;;;;;;;;;82130;274;3031085;-34
2023/07/06 05:40:34;;;;;;;;;;;;;;;;;;83453;270;3013171;-34
2023/07/06 05:43:07;;;;;;;;;;;;;;;;;;82151;270;3026694;-34
2023/07/06 05:45:39;;;;;;;;;;;;;;;;;;83404;274;3011415;-33
2023/07/06 05:48:12;;;;;;;;;;;;;;;;;;82131;278;3030984;-34
2023/07/06 05:50:44;;;;;;;;;;;;;;;;;;83444;277;3011530;-34
2023/07/06 05:53:17;;;;;;;;;;;;;;;;;;82118;273;3027662;-34
2023/07/06 05:55:49;;;;;;;;;;;;;;;;;;83347;272;3011469;-34
2023/07/06 05:58:25;;;;;;;;;;;;;;;;;;82145;270;3031600;-34
2023/07/06 06:00:59;;;;;;;;;;;;;;;;;;82095;278;3027866;-34
2023/07/06 06:03:36;;;;;;;;;;;;;;;;;;82858;274;3011724;-34
2023/07/06 06:06:10;;;;;;;;;;;;;;;;;;82143;274;3035067;-34
2023/07/06 06:08:47;;;;;;;;;;;;;;;;;;82887;278;3011934;-34
2023/07/06 06:11:21;;;;;;;;;;;;;;;;;;82872;270;3013483;-35
2023/07/06 06:13:56;;;;;;;;;;;;;;;;;;83418;274;3011657;-34
2023/07/06 06:16:29;;;;;;;;;;;;;;;;;;82132;273;3038897;-34
2023/07/06 06:19:02;;;;;;;;;;;;;;;;;;83463;278;3011449;-34
2023/07/06 06:21:35;;;;;;;;;;;;;;;;;;82152;278;3026815;-34
2023/07/06 06:24:09;;;;;;;;;;;;;;;;;;83444;269;3013107;-36
2023/07/06 06:26:43;;;;;;;;;;;;;;;;;;82108;270;3038209;-34
2023/07/06 06:29:15;;;;;;;;;;;;;;;;;;83434;278;3011640;-35
2023/07/06 06:31:50;;;;;;;;;;;;;;;;;;82138;275;3026859;-34
2023/07/06 06:34:26;;;;;;;;;;;;;;;;;;82109;270;3030178;-35
2023/07/06 06:37:00;;;;;;;;;;;;;;;;;;82855;270;3011637;-35
2023/07/06 06:39:32;;;;;;;;;;;;;;;;;;83418;278;3011611;-35
2023/07/06 06:42:07;;;;;;;;;;;;;;;;;;82115;278;3028687;-35
2023/07/06 06:44:42;;;;;;;;;;;;;;;;;;82871;270;3011533;-34
2023/07/06 06:47:14;;;;;;;;;;;;;;;;;;83421;278;3012753;-35
2023/07/06 06:49:48;;;;;;;;;;;;;;;;;;82119;270;3030422;-34
2023/07/06 06:52:20;;;;;;;;;;;;;;;;;;83393;278;3013339;-34
2023/07/06 06:54:58;;;;;;;;;;;;;;;;;;82099;266;3028530;-35
2023/07/06 06:57:30;;;;;;;;;;;;;;;;;;83421;274;3011223;-35
2023/07/06 07:00:06;;;;;;;;;;;;;;;;;;82173;270;3030645;-36
2023/07/06 07:02:39;;;;;;;;;;;;;;;;;;82158;274;3031511;-33
2023/07/06 07:05:15;;;;;;;;;;;;;;;;;;83432;278;3011450;-35
2023/07/06 07:07:49;;;;;;;;;;;;;;;;;;82174;274;3035294;-35
2023/07/06 07:10:22;;;;;;;;;;;;;;;;;;83475;274;3013027;-34
2023/07/06 07:12:56;;;;;;;;;;;;;;;;;;82125;274;3031558;-34
2023/07/06 07:15:30;;;;;;;;;;;;;;;;;;82125;274;3028500;-34
2023/07/06 07:18:02;;;;;;;;;;;;;;;;;;83468;278;3011216;-35
2023/07/06 07:20:36;;;;;;;;;;;;;;;;;;82154;273;3030398;-34
2023/07/06 07:23:07;;;;;;;;;;;;;;;;;;83438;278;3011542;-34
2023/07/06 07:25:41;;;;;;;;;;;;;;;;;;82138;274;3027556;-35
2023/07/06 07:28:16;;;;;;;;;;;;;;;;;;83417;274;3011497;-35
2023/07/06 07:31:01;;;;;;;;;;;;;;;;;;82164;270;3030797;-34
2023/07/06 07:33:37;;;;;;;;;;;;;;;;;;82144;270;3031903;-35
2023/07/06 07:36:14;;;;;;;;;;;;;;;;;;82870;277;3011840;-35
2023/07/06 07:38:49;;;;;;;;;;;;;;;;;;82156;278;3028252;-35
2023/07/06 07:41:25;;;;;;;;;;;;;;;;;;82866;269;3011845;-36
2023/07/06 07:44:01;;;;;;;;;;;;;;;;;;82905;270;3011534;-35
2023/07/06 07:46:35;;;;;;;;;;;;;;;;;;82890;274;3011685;-34
2023/07/06 07:49:07;;;;;;;;;;;;;;;;;;83437;277;3011636;-34
2023/07/06 07:51:40;;;;;;;;;;;;;;;;;;82140;270;3030035;-34
2023/07/06 07:54:12;;;;;;;;;;;;;;;;;;83456;270;3011678;-34
2023/07/06 07:56:47;;;;;;;;;;;;;;;;;;82119;274;3029158;-35
2023/07/06 07:59:23;;;;;;;;;;;;;;;;;;82863;270;3013421;-34
2023/07/06 08:01:57;;;;;;;;;;;;;;;;;;82869;274;3011562;-34
2023/07/06 08:04:30;;;;;;;;;;;;;;;;;;83414;278;3011511;-35
2023/07/06 08:07:03;;;;;;;;;;;;;;;;;;82132;278;3030676;-35
2023/07/06 08:09:34;;;;;;;;;;;;;;;;;;83440;274;3013396;-35
2023/07/06 08:12:10;;;;;;;;;;;;;;;;;;82137;270;3028514;-35
2023/07/06 08:14:44;;;;;;;;;;;;;;;;;;82131;270;3026724;-35
2023/07/06 08:17:17;;;;;;;;;;;;;;;;;;83424;278;3013417;-42
2023/07/06 08:19:52;;;;;;;;;;;;;;;;;;81973;270;3030740;-34
2023/07/06 08:22:46;;;;;;;;;;;;;;;;;;82122;270;3028448;-34
2023/07/06 08:25:21;;;;;;;;;;;;;;;;;;82132;270;3028114;-34
2023/07/06 08:27:53;;;;;;;;;;;;;;;;;;83401;270;3013109;-34
2023/07/06 08:30:27;;;;;;;;;;;;;;;;;;82115;278;3031640;-33
2023/07/06 08:33:00;;;;;;;;;;;;;;;;;;83439;270;3011748;-33
2023/07/06 08:35:35;;;;;;;;;;;;;;;;;;82100;271;3027585;-33
2023/07/06 08:38:07;;;;;;;;;;;;;;;;;;83377;274;3011929;-34
2023/07/06 08:40:41;;;;;;;;;;;;;;;;;;82111;277;3030975;-34
2023/07/06 08:43:21;;;;;;;;;;;;;;;;;;83425;278;3011467;-34
2023/07/06 08:45:58;;;;;;;;;;;;;;;;;;82132;279;3027285;-35
2023/07/06 08:48:36;;;;;;;;;;;;;;;;;;82078;270;3031208;-35
2023/07/06 08:51:17;;;;;;;;;;;;;;;;;;82062;270;3031416;-33
2023/07/06 08:53:54;;;;;;;;;;;;;;;;;;82077;270;3028458;-33
2023/07/06 08:56:29;;;;;;;;;;;;;;;;;;82117;274;3027385;-35
2023/07/06 08:59:07;;;;;;;;;;;;;;;;;;82831;270;3011338;-35
2023/07/06 09:01:41;;;;;;;;;;;;;;;;;;82110;278;3030579;-34
2023/07/06 09:04:19;;;;;;;;;;;;;;;;;;82835;274;3011527;-34
2023/07/06 09:06:57;;;;;;;;;;;;;;;;;;82872;270;3011598;-35
2023/07/06 09:09:31;;;;;;;;;;;;;;;;;;82061;274;3031927;-35
2023/07/06 09:12:14;;;;;;;;;;;;;;;;;;82858;278;3011311;-35
2023/07/06 09:14:53;;;;;;;;;;;;;;;;;;82109;274;3028320;-34
2023/07/06 09:17:35;;;;;;;;;;;;;;;;;;82126;278;3027572;-35
2023/07/06 09:20:17;;;;;;;;;;;;;;;;;;82097;278;3030747;-33
2023/07/06 09:22:51;;;;;;;;;;;;;;;;;;82152;270;3031146;-34
2023/07/06 09:25:29;;;;;;;;;;;;;;;;;;83475;278;3013096;-34
2023/07/06 09:28:07;;;;;;;;;;;;;;;;;;82174;270;3027046;-33
2023/07/06 09:30:42;;;;;;;;;;;;;;;;;;82140;274;3038239;-35
2023/07/06 09:33:20;;;;;;;;;;;;;;;;;;82860;274;3011502;-35
2023/07/06 09:35:55;;;;;;;;;;;;;;;;;;82135;278;3031773;-35
2023/07/06 09:38:30;;;;;;;;;;;;;;;;;;82087;278;3028519;-33
2023/07/06 09:41:20;;;;;;;;;;;;;;;;;;82841;278;3011537;-33
2023/07/06 09:43:58;;;;;;;;;;;;;;;;;;82107;270;3028497;-34
2023/07/06 09:46:36;;;;;;;;;;;;;;;;;;82140;278;3030089;-34
2023/07/06 09:49:19;;;;;;;;;;;;;;;;;;82066;270;3031671;-34
2023/07/06 09:51:56;;;;;;;;;;;;;;;;;;82092;270;3028981;-35
2023/07/06 09:54:34;;;;;;;;;;;;;;;;;;82151;274;3026990;-34
2023/07/06 09:57:16;;;;;;;;;;;;;;;;;;82138;278;3030304;-34
2023/07/06 09:59:52;;;;;;;;;;;;;;;;;;82108;270;3031872;-35
2023/07/06 10:02:35;;;;;;;;;;;;;;;;;;82957;278;3592853;-34
2023/07/06 10:05:21;;;;;;;;;;;;;;;;;;82096;271;3027386;-35
2023/07/06 10:07:59;;;;;;;;;;;;;;;;;;82088;274;3030314;-35
2023/07/06 10:10:42;;;;;;;;;;;;;;;;;;82097;278;3031948;-35
2023/07/06 10:13:25;;;;;;;;;;;;;;;;;;82083;278;3028674;-37
2023/07/06 10:16:15;;;;;;;;;;;;;;;;;;82114;278;3027152;-36
2023/07/06 10:18:51;;;;;;;;;;;;;;;;;;82102;278;3031603;-34
2023/07/06 10:21:29;;;;;;;;;;;;;;;;;;82057;278;3031432;-35
2023/07/06 10:24:10;;;;;;;;;;;;;;;;;;82115;278;3028144;-34
2023/07/06 10:26:48;;;;;;;;;;;;;;;;;;82128;278;3027974;-35
2023/07/06 10:29:26;;;;;;;;;;;;;;;;;;82122;278;3030824;-35
2023/07/06 10:32:04;;;;;;;;;;;;;;;;;;82221;270;3037356;-33
2023/07/06 10:34:41;;;;;;;;;;;;;;;;;;82156;270;3028373;-32
2023/07/06 10:37:16;;;;;;;;;;;;;;;;;;82146;270;3027336;-32
2023/07/06 10:40:17;;;;;;;;;;;;;;;;;;82860;270;3011228;-33
2023/07/06 10:43:08;;;;;;;;;;;;;;;;;;82056;274;3036472;-33
2023/07/06 10:45:44;;;;;;;;;;;;;;;;;;82129;278;3031796;-33
2023/07/06 10:48:27;;;;;;;;;;;;;;;;;;82143;278;3029429;-33
2023/07/06 10:51:22;;;;;;;;;;;;;;;;;;82105;270;3027812;-32
2023/07/06 10:54:11;;;;;;;;;;;;;;;;;;82047;271;3030430;-32
2023/07/06 10:56:48;;;;;;;;;;;;;;;;;;82123;278;3032084;-33
2023/07/06 10:59:24;;;;;;;;;;;;;;;;;;82139;278;3029580;-33
2023/07/06 11:02:14;;;;;;;;;;;;;;;;;;82095;270;3027902;-33
2023/07/06 11:04:58;;;;;;;;;;;;;;;;;;82133;270;3031406;-33
2023/07/06 11:07:44;;;;;;;;;;;;;;;;;;82102;270;3031762;-33
2023/07/06 11:10:43;;;;;;;;;;;;;;;;;;82077;270;3028651;-33
2023/07/06 11:13:21;;;;;;;;;;;;;;;;;;82256;278;3027590;-33
2023/07/06 11:16:04;;;;;;;;;;;;;;;;;;82120;270;3030690;-32
2023/07/06 11:18:46;;;;;;;;;;;;;;;;;;82135;278;3031390;-33
2023/07/06 11:21:32;;;;;;;;;;;;;;;;;;82092;274;3028284;-33
2023/07/06 11:24:07;;;;;;;;;;;;;;;;;;82127;278;3028143;-33
2023/07/06 11:26:51;;;;;;;;;;;;;;;;;;82878;278;3011492;-32
2023/07/06 11:29:28;;;;;;;;;;;;;;;;;;82185;274;3030681;-32
2023/07/06 11:32:14;;;;;;;;;;;;;;;;;;82085;270;3031442;-32
2023/07/06 11:34:57;;;;;;;;;;;;;;;;;;82156;274;3028263;-32
2023/07/06 11:37:38;;;;;;;;;;;;;;;;;;82085;278;3027210;-33
2023/07/06 11:40:29;;;;;;;;;;;;;;;;;;82176;274;3030372;-32
2023/07/06 11:43:13;;;;;;;;;;;;;;;;;;82128;278;3031886;-33
2023/07/06 11:45:53;;;;;;;;;;;;;;;;;;82106;274;3028668;-33
2023/07/06 11:48:34;;;;;;;;;;;;;;;;;;82079;278;3028510;-34
2023/07/06 11:51:08;;;;;;;;;;;;;;;;;;82119;278;3032904;-32
2023/07/06 11:53:54;;;;;;;;;;;;;;;;;;83365;278;3011851;-34
2023/07/06 11:56:50;;;;;;;;;;;;;;;;;;82085;279;3028870;-33
2023/07/06 11:59:36;;;;;;;;;;;;;;;;;;82133;271;3027159;-33
2023/07/06 12:02:17;;;;;;;;;;;;;;;;;;82089;279;3030208;-33
2023/07/06 12:04:51;;;;;;;;;;;;;;;;;;82080;270;3038539;-33
2023/07/06 12:07:29;;;;;;;;;;;;;;;;;;83421;270;3011257;-33
2023/07/06 12:10:06;;;;;;;;;;;;;;;;;;82087;275;3027196;-34
2023/07/06 12:12:41;;;;;;;;;;;;;;;;;;82070;278;3030633;-33
2023/07/06 12:15:16;;;;;;;;;;;;;;;;;;82833;278;3011556;-33
2023/07/06 12:17:48;;;;;;;;;;;;;;;;;;83430;270;3011544;-33
2023/07/06 12:20:23;;;;;;;;;;;;;;;;;;82121;278;3028608;-34
2023/07/06 12:22:59;;;;;;;;;;;;;;;;;;82817;271;3011559;-34
2023/07/06 12:25:33;;;;;;;;;;;;;;;;;;82864;271;3012868;-34
2023/07/06 12:28:10;;;;;;;;;;;;;;;;;;83431;279;3011459;-34
2023/07/06 12:30:44;;;;;;;;;;;;;;;;;;82102;275;3030501;-34
2023/07/06 12:33:17;;;;;;;;;;;;;;;;;;83339;279;3013620;-34
2023/07/06 12:35:51;;;;;;;;;;;;;;;;;;82127;279;3029449;-34
2023/07/06 12:38:27;;;;;;;;;;;;;;;;;;82847;279;3012605;-34
2023/07/06 12:41:19;;;;;;;;;;;;;;;;;;82118;271;3027302;-33
2023/07/06 12:43:53;;;;;;;;;;;;;;;;;;82088;279;3030919;-34
2023/07/06 12:46:32;;;;;;;;;;;;;;;;;;82871;271;3011520;-34
2023/07/06 12:49:16;;;;;;;;;;;;;;;;;;82052;270;3032051;-34
2023/07/06 12:51:49;;;;;;;;;;;;;;;;;;82076;278;3029015;-34
2023/07/06 12:54:22;;;;;;;;;;;;;;;;;;83358;278;3011540;-34
2023/07/06 12:57:00;;;;;;;;;;;;;;;;;;82100;278;3030528;-34
2023/07/06 12:59:37;;;;;;;;;;;;;;;;;;82101;278;3031217;-34
2023/07/06 13:02:19;;;;;;;;;;;;;;;;;;82096;270;3028753;-34
2023/07/06 13:04:53;;;;;;;;;;;;;;;;;;82102;270;3027197;-33
2023/07/06 13:07:28;;;;;;;;;;;;;;;;;;83405;278;3013676;-33
2023/07/06 13:10:01;;;;;;;;;;;;;;;;;;82103;278;3031468;-32
2023/07/06 13:12:33;;;;;;;;;;;;;;;;;;83389;270;3011679;-32
2023/07/06 13:15:18;;;;;;;;;;;;;;;;;;82109;278;3027721;-33
2023/07/06 13:17:58;;;;;;;;;;;;;;;;;;82092;270;3030367;-33
2023/07/06 13:20:34;;;;;;;;;;;;;;;;;;82037;280;3031787;-33
2023/07/06 13:23:10;;;;;;;;;;;;;;;;;;82082;275;3028525;-32
2023/07/06 13:25:49;;;;;;;;;;;;;;;;;;82060;270;3027843;-34
2023/07/06 13:28:26;;;;;;;;;;;;;;;;;;82036;278;3030674;-31
2023/07/06 13:31:00;;;;;;;;;;;;;;;;;;82838;270;3011534;-33
2023/07/06 13:33:32;;;;;;;;;;;;;;;;;;83367;278;3011550;-35
2023/07/06 13:39:21;;;;;;;;;;;;;;;;;;82478;278;3027854;-38
2023/07/06 13:42:02;;;;;;;;;;;;;;;;;;82800;271;3011565;-38
2023/07/06 13:44:41;;;;;;;;;;;;;;;;;;82079;279;3030139;-38
2023/07/06 13:47:19;;;;;;;;;;;;;;;;;;82153;271;3039664;-38
2023/07/06 13:49:52;;;;;;;;;;;;;;;;;;83465;279;3012866;-37
2023/07/06 13:52:30;;;;;;;;;;;;;;;;;;82118;279;3027639;-36
2023/07/06 13:55:05;;;;;;;;;;;;;;;;;;82144;279;3031015;-36
2023/07/06 13:57:44;;;;;;;;;;;;;;;;;;82899;271;3011950;-39
2023/07/06 14:00:22;;;;;;;;;;;;;;;;;;82124;279;3032218;-40
2023/07/06 14:02:58;;;;;;;;;;;;;;;;;;82877;279;3011216;-38
2023/07/06 14:05:34;;;;;;;;;;;;;;;;;;82095;279;3028708;-38
2023/07/06 14:08:06;;;;;;;;;;;;;;;;;;83435;279;3011608;-45
2023/07/06 14:10:40;;;;;;;;;;;;;;;;;;82150;279;3030101;-39
2023/07/06 14:13:13;;;;;;;;;;;;;;;;;;83452;279;3013439;-41
2023/07/06 14:15:46;;;;;;;;;;;;;;;;;;82086;278;3028212;-37
2023/07/06 14:18:18;;;;;;;;;;;;;;;;;;83323;272;3011480;-37
2023/07/06 14:20:57;;;;;;;;;;;;;;;;;;82088;279;3030373;-41
2023/07/06 14:23:33;;;;;;;;;;;;;;;;;;82126;279;3033302;-40
2023/07/06 14:26:09;;;;;;;;;;;;;;;;;;82845;279;3011566;-40
2023/07/06 14:28:49;;;;;;;;;;;;;;;;;;82858;279;3011537;-41
2023/07/06 14:31:33;;;;;;;;;;;;;;;;;;82112;281;3028544;-43
2023/07/06 14:34:09;;;;;;;;;;;;;;;;;;82144;279;3027787;-39
2023/07/06 14:36:42;;;;;;;;;;;;;;;;;;82085;279;3030209;-39
2023/07/06 14:39:20;;;;;;;;;;;;;;;;;;82856;279;3011543;-42
2023/07/06 14:41:56;;;;;;;;;;;;;;;;;;82106;279;3032043;-44
2023/07/06 14:44:32;;;;;;;;;;;;;;;;;;82927;279;3011583;-42
2023/07/06 14:47:07;;;;;;;;;;;;;;;;;;83383;279;3011510;-43
2023/07/06 14:49:48;;;;;;;;;;;;;;;;;;82156;279;3028007;-38
2023/07/06 14:52:27;;;;;;;;;;;;;;;;;;82103;279;3030655;-38
2023/07/06 14:55:01;;;;;;;;;;;;;;;;;;82149;279;3031770;-36
2023/07/06 14:57:34;;;;;;;;;;;;;;;;;;83383;279;3011842;-36
2023/07/06 15:00:11;;;;;;;;;;;;;;;;;;82121;279;3026905;-37
2023/07/06 15:02:46;;;;;;;;;;;;;;;;;;82161;279;3029976;-37
2023/07/06 15:05:22;;;;;;;;;;;;;;;;;;82883;271;3011591;-36
2023/07/06 15:07:58;;;;;;;;;;;;;;;;;;82106;279;3032170;-36
2023/07/06 15:10:34;;;;;;;;;;;;;;;;;;82109;279;3028791;-36
2023/07/06 15:13:08;;;;;;;;;;;;;;;;;;83485;279;3013514;-36
2023/07/06 15:15:41;;;;;;;;;;;;;;;;;;82180;271;3030391;-35
2023/07/06 15:18:18;;;;;;;;;;;;;;;;;;82871;279;3011569;-37
2023/07/06 15:20:50;;;;;;;;;;;;;;;;;;83455;279;3011452;-37
2023/07/06 15:23:24;;;;;;;;;;;;;;;;;;82162;279;3027778;-36
2023/07/06 15:25:56;;;;;;;;;;;;;;;;;;83446;279;3012806;-36
2023/07/06 15:28:30;;;;;;;;;;;;;;;;;;82114;279;3030341;-37
2023/07/06 15:31:02;;;;;;;;;;;;;;;;;;83477;279;3011475;-37
2023/07/06 15:33:35;;;;;;;;;;;;;;;;;;82162;279;3027920;-36
2023/07/06 15:36:07;;;;;;;;;;;;;;;;;;83436;279;3011506;-36
2023/07/06 15:38:40;;;;;;;;;;;;;;;;;;82123;279;3030556;-36
2023/07/06 15:41:12;;;;;;;;;;;;;;;;;;83461;279;3011478;-37
2023/07/06 15:43:46;;;;;;;;;;;;;;;;;;82133;279;3028276;-37
2023/07/06 15:46:18;;;;;;;;;;;;;;;;;;83465;279;3013590;-36
2023/07/06 15:48:52;;;;;;;;;;;;;;;;;;82128;271;3031031;-37
2023/07/06 15:51:25;;;;;;;;;;;;;;;;;;83438;283;3011514;-39
2023/07/06 15:53:58;;;;;;;;;;;;;;;;;;82105;279;3028262;-37
2023/07/06 15:56:32;;;;;;;;;;;;;;;;;;83456;279;3011765;-37
2023/07/06 15:59:09;;;;;;;;;;;;;;;;;;82085;271;3031553;-38
2023/07/06 16:01:42;;;;;;;;;;;;;;;;;;82134;279;3031867;-36
2023/07/06 16:04:14;;;;;;;;;;;;;;;;;;83497;275;3013271;-38
2023/07/06 16:06:47;;;;;;;;;;;;;;;;;;82181;279;3026339;-36
2023/07/06 16:09:22;;;;;;;;;;;;;;;;;;83442;271;3011600;-36
2023/07/06 16:11:55;;;;;;;;;;;;;;;;;;82198;279;3032212;-36
2023/07/06 16:14:27;;;;;;;;;;;;;;;;;;83464;279;3011349;-36
2023/07/06 16:17:01;;;;;;;;;;;;;;;;;;82181;279;3026576;-36
2023/07/06 16:19:32;;;;;;;;;;;;;;;;;;83455;279;3011564;-37
2023/07/06 16:22:06;;;;;;;;;;;;;;;;;;82112;279;3030737;-36
2023/07/06 16:24:40;;;;;;;;;;;;;;;;;;83436;271;3011527;-37
2023/07/06 16:27:13;;;;;;;;;;;;;;;;;;82127;279;3027869;-36
2023/07/06 16:29:46;;;;;;;;;;;;;;;;;;83413;271;3011498;-36
2023/07/06 16:32:21;;;;;;;;;;;;;;;;;;82080;279;3032481;-36
2023/07/06 16:34:55;;;;;;;;;;;;;;;;;;82924;279;3011457;-37
2023/07/06 16:37:27;;;;;;;;;;;;;;;;;;83445;279;3011572;-37
2023/07/06 16:40:01;;;;;;;;;;;;;;;;;;82089;279;3026290;-36
2023/07/06 16:42:36;;;;;;;;;;;;;;;;;;82881;271;3011882;-35
2023/07/06 16:45:09;;;;;;;;;;;;;;;;;;83475;279;3011549;-37
2023/07/06 16:47:42;;;;;;;;;;;;;;;;;;82142;279;3031615;-36
2023/07/06 16:50:14;;;;;;;;;;;;;;;;;;83399;279;3011958;-37
2023/07/06 16:52:47;;;;;;;;;;;;;;;;;;82161;275;3027267;-37
2023/07/06 16:55:19;;;;;;;;;;;;;;;;;;83432;279;3011388;-36